createdAt,value
2022-10-13T00:01:00.089Z,51.45
2022-10-13T00:02:00.090Z,51.44
2022-10-13T00:03:00.172Z,51.45
2022-10-13T00:04:00.274Z,51.43
2022-10-13T00:05:00.365Z,51.42
2022-10-13T00:06:00.409Z,51.42
2022-10-13T00:07:00.506Z,51.44
2022-10-13T00:08:00.604Z,51.36
2022-10-13T00:09:00.663Z,51.33
2022-10-13T00:10:00.737Z,51.34
2022-10-13T00:11:00.779Z,51.28
2022-10-13T00:12:00.857Z,51.30
2022-10-13T00:13:00.988Z,51.28
2022-10-13T00:14:01.041Z,51.28
2022-10-13T00:15:01.117Z,51.36
2022-10-13T00:16:01.185Z,51.40
2022-10-13T00:17:01.267Z,51.35
2022-10-13T00:18:01.373Z,51.37
2022-10-13T00:19:01.459Z,51.39
2022-10-13T00:20:01.532Z,51.40
2022-10-13T00:21:01.613Z,51.39
2022-10-13T00:22:01.708Z,51.38
2022-10-13T00:23:01.782Z,51.36
2022-10-13T00:24:01.847Z,51.34
2022-10-13T00:25:01.940Z,51.33
2022-10-13T00:26:02.019Z,51.33
2022-10-13T00:27:02.094Z,51.32
2022-10-13T00:28:02.171Z,51.34
2022-10-13T00:29:02.334Z,51.32
2022-10-13T00:30:02.345Z,51.32
2022-10-13T00:31:02.410Z,51.28
2022-10-13T00:32:02.488Z,51.28
2022-10-13T00:33:02.578Z,51.26
2022-10-13T00:34:02.737Z,51.27
2022-10-13T00:35:02.737Z,51.25
2022-10-13T00:36:02.800Z,51.28
2022-10-13T00:37:02.887Z,51.28
2022-10-13T00:38:02.959Z,51.26
2022-10-13T00:39:03.091Z,51.27
2022-10-13T00:40:03.137Z,51.29
2022-10-13T00:41:03.203Z,51.32
2022-10-13T00:42:03.260Z,51.37
2022-10-13T00:43:03.368Z,51.37
2022-10-13T00:44:03.413Z,51.40
2022-10-13T00:45:03.575Z,51.37
2022-10-13T00:46:03.566Z,51.37
2022-10-13T00:47:03.676Z,51.34
2022-10-13T00:48:03.833Z,51.30
2022-10-13T00:49:03.878Z,51.29
2022-10-13T00:50:03.902Z,51.26
2022-10-13T00:51:03.991Z,51.21
2022-10-13T00:52:04.090Z,51.21
2022-10-13T00:53:04.155Z,51.16
2022-10-13T00:54:04.232Z,51.14
2022-10-13T00:55:04.313Z,51.12
2022-10-13T00:56:04.382Z,51.14
2022-10-13T00:57:04.453Z,51.13
2022-10-13T00:58:05.530Z,51.08
2022-10-13T00:59:04.645Z,51.12
2022-10-13T01:00:04.696Z,51.06
2022-10-13T01:01:04.804Z,51.04
2022-10-13T01:02:04.892Z,51.03
2022-10-13T01:03:04.934Z,51.05
2022-10-13T01:04:05.019Z,51.04
2022-10-13T01:05:05.098Z,51.02
2022-10-13T01:06:05.256Z,51.02
2022-10-13T01:07:05.244Z,51.04
2022-10-13T01:08:05.372Z,51.02
2022-10-13T01:09:05.440Z,51.04
2022-10-13T01:10:05.496Z,51.02
2022-10-13T01:11:05.599Z,51.03
2022-10-13T01:12:05.648Z,51.20
2022-10-13T01:13:05.731Z,51.26
2022-10-13T01:14:05.791Z,51.28
2022-10-13T01:15:05.876Z,51.29
2022-10-13T01:16:05.975Z,51.29
2022-10-13T01:17:06.053Z,51.33
2022-10-13T01:18:06.133Z,51.45
2022-10-13T01:19:06.246Z,51.51
2022-10-13T01:20:06.290Z,51.55
2022-10-13T01:21:06.377Z,51.55
2022-10-13T01:22:06.463Z,51.53
2022-10-13T01:23:06.552Z,51.49
2022-10-13T01:24:06.657Z,51.42
2022-10-13T01:25:06.712Z,51.38
2022-10-13T01:26:06.803Z,51.34
2022-10-13T01:27:06.880Z,51.31
2022-10-13T01:28:06.957Z,51.31
2022-10-13T01:29:07.046Z,51.32
2022-10-13T01:30:07.110Z,51.30
2022-10-13T01:31:07.206Z,51.29
2022-10-13T01:32:07.258Z,51.31
2022-10-13T01:33:07.348Z,51.31
2022-10-13T01:34:07.467Z,51.29
2022-10-13T01:35:07.505Z,51.27
2022-10-13T01:36:07.590Z,51.24
2022-10-13T01:37:07.670Z,51.25
2022-10-13T01:38:07.772Z,51.24
2022-10-13T01:39:07.867Z,51.23
2022-10-13T01:40:07.930Z,51.22
2022-10-13T01:41:10.629Z,51.21
2022-10-13T01:42:10.716Z,51.23
2022-10-13T01:43:08.202Z,51.21
2022-10-13T01:44:08.271Z,51.21
2022-10-13T01:45:08.371Z,51.18
2022-10-13T01:46:08.442Z,51.19
2022-10-13T01:47:08.550Z,51.16
2022-10-13T01:48:08.609Z,51.18
2022-10-13T01:49:08.678Z,51.15
2022-10-13T01:50:08.758Z,51.19
2022-10-13T01:51:08.831Z,51.17
2022-10-13T01:52:08.896Z,51.16
2022-10-13T01:53:08.993Z,51.16
2022-10-13T01:54:09.051Z,51.17
2022-10-13T01:55:09.124Z,51.14
2022-10-13T01:56:09.212Z,51.14
2022-10-13T01:57:09.303Z,51.15
2022-10-13T01:58:09.463Z,51.16
2022-10-13T01:59:09.478Z,51.17
2022-10-13T02:00:09.554Z,51.17
2022-10-13T02:01:09.679Z,51.15
2022-10-13T02:02:09.701Z,51.15
2022-10-13T02:03:09.812Z,51.13
2022-10-13T02:04:09.844Z,51.13
2022-10-13T02:05:09.929Z,51.15
2022-10-13T02:06:09.997Z,51.22
2022-10-13T02:07:10.065Z,51.21
2022-10-13T02:08:10.148Z,51.20
2022-10-13T02:09:10.221Z,51.17
2022-10-13T02:10:10.307Z,51.17
2022-10-13T02:11:10.383Z,51.19
2022-10-13T02:12:10.467Z,51.17
2022-10-13T02:13:10.558Z,51.16
2022-10-13T02:14:10.621Z,51.17
2022-10-13T02:15:10.692Z,51.19
2022-10-13T02:16:10.775Z,51.19
2022-10-13T02:17:10.845Z,51.19
2022-10-13T02:18:10.933Z,51.18
2022-10-13T02:19:11.013Z,51.17
2022-10-13T02:20:11.093Z,51.15
2022-10-13T02:21:11.180Z,51.15
2022-10-13T02:22:11.258Z,51.14
2022-10-13T02:23:11.356Z,51.24
2022-10-13T02:24:11.406Z,51.35
2022-10-13T02:25:11.489Z,51.42
2022-10-13T02:26:11.566Z,51.40
2022-10-13T02:27:11.647Z,51.39
2022-10-13T02:28:11.752Z,51.37
2022-10-13T02:29:11.795Z,51.36
2022-10-13T02:30:11.872Z,51.36
2022-10-13T02:31:11.958Z,51.38
2022-10-13T02:32:12.026Z,51.40
2022-10-13T02:33:12.127Z,51.43
2022-10-13T02:34:12.182Z,51.48
2022-10-13T02:35:12.273Z,51.51
2022-10-13T02:36:12.325Z,51.49
2022-10-13T02:37:12.420Z,51.51
2022-10-13T02:38:12.508Z,51.51
2022-10-13T02:39:12.608Z,51.58
2022-10-13T02:40:12.687Z,51.59
2022-10-13T02:41:12.785Z,51.57
2022-10-13T02:42:12.831Z,51.58
2022-10-13T02:43:12.918Z,51.57
2022-10-13T02:44:12.978Z,51.56
2022-10-13T02:45:13.056Z,51.56
2022-10-13T02:46:13.168Z,51.57
2022-10-13T02:47:13.195Z,51.49
2022-10-13T02:48:13.354Z,51.52
2022-10-13T02:49:13.374Z,51.53
2022-10-13T02:50:13.436Z,51.47
2022-10-13T02:51:13.510Z,51.50
2022-10-13T02:52:13.584Z,51.50
2022-10-13T02:53:13.683Z,51.48
2022-10-13T02:54:13.753Z,51.51
2022-10-13T02:55:13.824Z,51.54
2022-10-13T02:56:13.894Z,51.53
2022-10-13T02:57:13.962Z,51.48
2022-10-13T02:58:14.051Z,51.51
2022-10-13T02:59:14.133Z,51.51
2022-10-13T03:00:14.204Z,51.51
2022-10-13T03:01:14.305Z,51.52
2022-10-13T03:02:14.360Z,51.58
2022-10-13T03:03:14.476Z,51.58
2022-10-13T03:04:14.529Z,51.55
2022-10-13T03:05:14.596Z,51.54
2022-10-13T03:06:14.690Z,51.52
2022-10-13T03:07:14.751Z,51.52
2022-10-13T03:08:14.839Z,51.49
2022-10-13T03:09:14.914Z,51.45
2022-10-13T03:10:14.988Z,51.45
2022-10-13T03:11:15.067Z,51.43
2022-10-13T03:12:15.151Z,51.42
2022-10-13T03:13:15.306Z,51.40
2022-10-13T03:14:15.306Z,51.42
2022-10-13T03:15:15.407Z,51.44
2022-10-13T03:16:15.483Z,51.44
2022-10-13T03:17:15.559Z,51.52
2022-10-13T03:18:15.640Z,51.52
2022-10-13T03:19:15.709Z,51.48
2022-10-13T03:20:15.779Z,51.53
2022-10-13T03:21:15.877Z,51.60
2022-10-13T03:22:15.935Z,51.59
2022-10-13T03:23:16.030Z,51.61
2022-10-13T03:24:16.098Z,51.64
2022-10-13T03:25:16.172Z,51.64
2022-10-13T03:26:16.271Z,51.64
2022-10-13T03:27:16.317Z,51.66
2022-10-13T03:28:16.439Z,51.69
2022-10-13T03:29:16.466Z,51.70
2022-10-13T03:30:16.569Z,51.68
2022-10-13T03:31:16.614Z,51.69
2022-10-13T03:32:16.871Z,51.66
2022-10-13T03:33:16.765Z,51.69
2022-10-13T03:34:16.835Z,51.68
2022-10-13T03:35:16.906Z,51.69
2022-10-13T03:36:16.979Z,51.66
2022-10-13T03:37:17.059Z,51.74
2022-10-13T03:38:17.157Z,51.73
2022-10-13T03:39:17.195Z,51.67
2022-10-13T03:40:17.284Z,51.64
2022-10-13T03:41:17.355Z,51.67
2022-10-13T03:42:17.818Z,51.63
2022-10-13T03:43:17.539Z,51.63
2022-10-13T03:44:17.603Z,51.60
2022-10-13T03:45:17.683Z,51.61
2022-10-13T03:46:17.765Z,51.59
2022-10-13T03:47:17.843Z,51.58
2022-10-13T03:48:17.928Z,51.54
2022-10-13T03:49:18.008Z,51.56
2022-10-13T03:50:18.077Z,51.52
2022-10-13T03:51:18.150Z,51.53
2022-10-13T03:52:18.669Z,51.50
2022-10-13T03:53:18.329Z,51.45
2022-10-13T03:54:18.381Z,51.44
2022-10-13T03:55:18.455Z,51.37
2022-10-13T03:56:18.534Z,51.40
2022-10-13T03:57:18.616Z,51.60
2022-10-13T03:58:18.699Z,51.65
2022-10-13T03:59:18.785Z,51.59
2022-10-13T04:00:18.858Z,51.53
2022-10-13T04:01:18.972Z,51.50
2022-10-13T04:02:19.271Z,51.51
2022-10-13T04:03:19.111Z,51.73
2022-10-13T04:04:19.188Z,51.66
2022-10-13T04:05:19.265Z,51.64
2022-10-13T04:06:19.356Z,51.66
2022-10-13T04:07:19.436Z,51.70
2022-10-13T04:08:19.531Z,51.76
2022-10-13T04:09:19.603Z,51.80
2022-10-13T04:10:19.699Z,51.82
2022-10-13T04:11:19.749Z,51.83
2022-10-13T04:12:21.060Z,51.82
2022-10-13T04:13:19.937Z,51.82
2022-10-13T04:14:20.001Z,51.80
2022-10-13T04:15:20.090Z,51.80
2022-10-13T04:16:20.164Z,51.81
2022-10-13T04:17:20.236Z,51.80
2022-10-13T04:18:20.317Z,51.85
2022-10-13T04:19:20.382Z,51.79
2022-10-13T04:20:20.459Z,51.83
2022-10-13T04:21:20.538Z,51.85
2022-10-13T04:22:20.980Z,51.83
2022-10-13T04:23:20.693Z,51.86
2022-10-13T04:24:20.775Z,51.85
2022-10-13T04:25:20.867Z,51.80
2022-10-13T04:26:20.958Z,51.79
2022-10-13T04:27:21.013Z,51.77
2022-10-13T04:28:21.132Z,51.75
2022-10-13T04:29:21.149Z,51.85
2022-10-13T04:30:21.233Z,51.92
2022-10-13T04:31:21.314Z,51.97
2022-10-13T04:32:21.902Z,51.98
2022-10-13T04:33:21.482Z,52.00
2022-10-13T04:34:21.543Z,52.01
2022-10-13T04:35:21.618Z,52.07
2022-10-13T04:36:21.705Z,52.20
2022-10-13T04:37:21.789Z,52.14
2022-10-13T04:38:21.879Z,52.03
2022-10-13T04:39:21.928Z,52.01
2022-10-13T04:40:22.001Z,51.99
2022-10-13T04:41:22.083Z,52.05
2022-10-13T04:42:22.747Z,52.05
2022-10-13T04:43:22.242Z,52.01
2022-10-13T04:44:22.316Z,52.05
2022-10-13T04:45:22.393Z,51.97
2022-10-13T04:46:22.476Z,51.91
2022-10-13T04:47:22.565Z,51.87
2022-10-13T04:48:22.655Z,51.98
2022-10-13T04:49:22.729Z,52.05
2022-10-13T04:50:22.800Z,52.02
2022-10-13T04:51:22.886Z,51.96
2022-10-13T04:52:23.121Z,51.93
2022-10-13T04:53:23.025Z,51.92
2022-10-13T04:54:23.112Z,52.08
2022-10-13T04:55:23.207Z,52.23
2022-10-13T04:56:23.285Z,52.32
2022-10-13T04:57:23.381Z,52.31
2022-10-13T04:58:23.476Z,52.37
2022-10-13T04:59:23.547Z,52.44
2022-10-13T05:00:23.660Z,52.43
2022-10-13T05:01:23.690Z,52.42
2022-10-13T05:02:23.779Z,52.41
2022-10-13T05:03:23.863Z,52.35
2022-10-13T05:04:23.926Z,52.26
2022-10-13T05:05:24.010Z,52.16
2022-10-13T05:06:24.093Z,52.15
2022-10-13T05:07:24.187Z,52.16
2022-10-13T05:08:24.278Z,52.12
2022-10-13T05:09:24.315Z,52.09
2022-10-13T05:10:24.422Z,52.09
2022-10-13T05:11:24.489Z,52.07
2022-10-13T05:12:24.558Z,52.00
2022-10-13T05:13:24.997Z,51.89
2022-10-13T05:14:24.688Z,51.84
2022-10-13T05:15:24.765Z,51.78
2022-10-13T05:16:24.837Z,51.71
2022-10-13T05:17:24.907Z,51.64
2022-10-13T05:18:24.993Z,51.59
2022-10-13T05:19:25.103Z,51.53
2022-10-13T05:20:25.158Z,51.47
2022-10-13T05:21:25.258Z,51.42
2022-10-13T05:22:25.314Z,51.37
2022-10-13T05:23:25.393Z,51.36
2022-10-13T05:24:25.483Z,51.31
2022-10-13T05:25:28.232Z,51.30
2022-10-13T05:26:25.659Z,51.30
2022-10-13T05:27:25.745Z,51.25
2022-10-13T05:28:25.843Z,51.23
2022-10-13T05:29:25.899Z,51.23
2022-10-13T05:30:26.001Z,51.23
2022-10-13T05:31:26.050Z,51.25
2022-10-13T05:32:26.151Z,51.27
2022-10-13T05:33:26.195Z,51.27
2022-10-13T05:34:26.266Z,51.24
2022-10-13T05:35:26.337Z,51.20
2022-10-13T05:36:26.424Z,51.19
2022-10-13T05:37:26.498Z,51.14
2022-10-13T05:38:26.567Z,51.13
2022-10-13T05:39:26.644Z,51.16
2022-10-13T05:40:26.727Z,51.16
2022-10-13T05:41:26.833Z,51.18
2022-10-13T05:42:26.906Z,51.14
2022-10-13T05:43:26.963Z,51.16
2022-10-13T05:44:27.035Z,51.17
2022-10-13T05:45:27.125Z,51.23
2022-10-13T05:46:27.207Z,51.24
2022-10-13T05:47:27.298Z,51.27
2022-10-13T05:48:27.415Z,51.30
2022-10-13T05:49:27.448Z,51.30
2022-10-13T05:50:27.532Z,51.29
2022-10-13T05:51:27.606Z,51.25
2022-10-13T05:52:27.702Z,51.23
2022-10-13T05:53:27.767Z,51.18
2022-10-13T05:54:27.836Z,51.16
2022-10-13T05:55:27.945Z,51.12
2022-10-13T05:56:27.995Z,51.08
2022-10-13T05:57:28.042Z,51.07
2022-10-13T05:58:28.129Z,51.02
2022-10-13T05:59:28.212Z,50.99
2022-10-13T06:00:28.290Z,50.98
2022-10-13T06:01:28.426Z,50.94
2022-10-13T06:02:28.488Z,50.93
2022-10-13T06:03:28.550Z,50.92
2022-10-13T06:04:28.645Z,50.88
2022-10-13T06:05:28.725Z,50.86
2022-10-13T06:06:31.494Z,50.83
2022-10-13T06:07:28.886Z,50.85
2022-10-13T06:08:28.983Z,50.81
2022-10-13T06:09:29.037Z,50.79
2022-10-13T06:10:29.146Z,50.79
2022-10-13T06:11:29.216Z,50.74
2022-10-13T06:12:29.287Z,50.75
2022-10-13T06:13:29.358Z,50.73
2022-10-13T06:14:29.432Z,50.70
2022-10-13T06:15:29.508Z,50.68
2022-10-13T06:16:29.602Z,50.73
2022-10-13T06:17:29.670Z,50.70
2022-10-13T06:18:29.753Z,50.66
2022-10-13T06:19:29.822Z,50.64
2022-10-13T06:20:29.915Z,50.64
2022-10-13T06:21:30.021Z,50.65
2022-10-13T06:22:30.099Z,50.64
2022-10-13T06:23:30.175Z,50.57
2022-10-13T06:24:30.258Z,50.57
2022-10-13T06:25:30.336Z,50.58
2022-10-13T06:26:30.434Z,50.56
2022-10-13T06:27:30.481Z,50.50
2022-10-13T06:28:30.641Z,50.54
2022-10-13T06:29:30.644Z,50.56
2022-10-13T06:30:30.736Z,50.49
2022-10-13T06:31:30.785Z,50.53
2022-10-13T06:32:30.916Z,50.54
2022-10-13T06:33:30.933Z,50.57
2022-10-13T06:34:31.029Z,50.55
2022-10-13T06:35:31.108Z,50.54
2022-10-13T06:36:31.184Z,50.58
2022-10-13T06:37:31.262Z,50.64
2022-10-13T06:38:31.343Z,50.68
2022-10-13T06:39:31.428Z,50.69
2022-10-13T06:40:31.540Z,50.71
2022-10-13T06:41:31.597Z,50.65
2022-10-13T06:42:31.672Z,50.65
2022-10-13T06:43:39.600Z,50.58
2022-10-13T06:44:31.843Z,50.63
2022-10-13T06:45:31.940Z,50.59
2022-10-13T06:46:31.989Z,50.51
2022-10-13T06:47:32.071Z,50.50
2022-10-13T06:48:32.142Z,50.49
2022-10-13T06:49:32.244Z,50.48
2022-10-13T06:50:32.580Z,50.46
2022-10-13T06:51:32.353Z,50.46
2022-10-13T06:52:32.444Z,50.39
2022-10-13T06:53:32.530Z,50.39
2022-10-13T06:54:32.609Z,50.42
2022-10-13T06:55:32.700Z,50.37
2022-10-13T06:56:32.777Z,50.33
2022-10-13T06:57:32.857Z,50.38
2022-10-13T06:58:32.924Z,50.36
2022-10-13T06:59:33.002Z,50.36
2022-10-13T07:00:33.105Z,50.40
2022-10-13T07:01:35.755Z,50.42
2022-10-13T07:02:33.244Z,50.46
2022-10-13T07:03:33.331Z,50.45
2022-10-13T07:04:33.411Z,50.48
2022-10-13T07:05:33.516Z,50.53
2022-10-13T07:06:33.564Z,50.48
2022-10-13T07:07:33.660Z,50.50
2022-10-13T07:08:33.736Z,50.47
2022-10-13T07:09:33.818Z,50.47
2022-10-13T07:10:33.891Z,50.46
2022-10-13T07:11:33.967Z,50.50
2022-10-13T07:12:34.042Z,50.47
2022-10-13T07:13:36.464Z,50.53
2022-10-13T07:14:34.203Z,50.59
2022-10-13T07:15:34.290Z,50.61
2022-10-13T07:16:34.361Z,50.59
2022-10-13T07:17:34.462Z,50.57
2022-10-13T07:18:34.552Z,50.56
2022-10-13T07:19:34.606Z,50.56
2022-10-13T07:20:34.695Z,50.62
2022-10-13T07:21:34.803Z,50.65
2022-10-13T07:22:34.847Z,50.69
2022-10-13T07:23:34.940Z,50.74
2022-10-13T07:24:34.989Z,50.66
2022-10-13T07:25:35.079Z,50.72
2022-10-13T07:26:35.148Z,50.73
2022-10-13T07:27:35.243Z,50.72
2022-10-13T07:28:35.357Z,50.68
2022-10-13T07:29:35.410Z,50.65
2022-10-13T07:30:35.508Z,50.63
2022-10-13T07:31:35.585Z,50.62
2022-10-13T07:32:35.649Z,50.63
2022-10-13T07:33:35.737Z,50.63
2022-10-13T07:34:35.835Z,50.63
2022-10-13T07:35:35.907Z,50.63
2022-10-13T07:36:35.986Z,50.66
2022-10-13T07:37:36.070Z,50.73
2022-10-13T07:38:36.134Z,50.78
2022-10-13T07:39:36.235Z,50.76
2022-10-13T07:40:36.286Z,50.68
2022-10-13T07:41:36.368Z,50.65
2022-10-13T07:42:36.441Z,50.63
2022-10-13T07:43:36.521Z,50.61
2022-10-13T07:44:36.591Z,50.60
2022-10-13T07:45:36.695Z,50.57
2022-10-13T07:46:36.735Z,50.57
2022-10-13T07:47:36.825Z,50.57
2022-10-13T07:48:36.894Z,50.58
2022-10-13T07:49:36.976Z,50.64
2022-10-13T07:50:37.290Z,50.63
2022-10-13T07:51:37.151Z,50.57
2022-10-13T07:52:37.255Z,50.61
2022-10-13T07:53:37.305Z,50.58
2022-10-13T07:54:37.377Z,50.62
2022-10-13T07:55:37.452Z,50.61
2022-10-13T07:56:37.521Z,50.58
2022-10-13T07:57:37.605Z,50.57
2022-10-13T07:58:37.680Z,50.57
2022-10-13T07:59:37.767Z,50.60
2022-10-13T08:00:37.846Z,50.56
2022-10-13T08:01:37.968Z,50.56
2022-10-13T08:02:37.982Z,50.57
2022-10-13T08:03:38.060Z,50.57
2022-10-13T08:04:38.155Z,50.58
2022-10-13T08:05:38.248Z,50.57
2022-10-13T08:06:38.293Z,50.58
2022-10-13T08:07:38.369Z,50.57
2022-10-13T08:08:38.453Z,50.57
2022-10-13T08:09:38.535Z,50.58
2022-10-13T08:10:38.635Z,50.59
2022-10-13T08:11:38.708Z,50.58
2022-10-13T08:12:38.956Z,50.58
2022-10-13T08:13:38.987Z,50.57
2022-10-13T08:14:39.141Z,50.57
2022-10-13T08:15:39.019Z,50.57
2022-10-13T08:16:39.101Z,50.57
2022-10-13T08:17:39.202Z,50.57
2022-10-13T08:18:39.274Z,50.58
2022-10-13T08:19:39.454Z,50.57
2022-10-13T08:20:41.184Z,50.57
2022-10-13T08:21:57.649Z,50.56
2022-10-13T08:22:39.594Z,50.60
2022-10-13T08:23:39.662Z,50.58
2022-10-13T08:24:39.751Z,50.59
2022-10-13T08:25:39.833Z,50.59
2022-10-13T08:26:39.899Z,50.57
2022-10-13T08:27:50.722Z,50.56
2022-10-13T08:28:42.741Z,50.60
2022-10-13T08:29:40.226Z,50.59
2022-10-13T08:30:40.291Z,50.59
2022-10-13T08:31:40.510Z,50.56
2022-10-13T08:32:40.351Z,50.58
2022-10-13T08:33:40.492Z,50.56
2022-10-13T08:34:40.501Z,50.55
2022-10-13T08:35:40.576Z,50.56
2022-10-13T08:36:40.657Z,50.56
2022-10-13T08:37:40.731Z,50.60
2022-10-13T08:38:40.828Z,50.62
2022-10-13T08:39:40.885Z,50.63
2022-10-13T08:40:40.964Z,50.67
2022-10-13T08:41:41.056Z,50.69
2022-10-13T08:42:41.140Z,50.73
2022-10-13T08:43:54.883Z,50.76
2022-10-13T08:45:10.907Z,50.80
2022-10-13T08:45:42.322Z,50.89
2022-10-13T08:46:41.470Z,50.92
2022-10-13T08:47:41.545Z,50.90
2022-10-13T08:48:41.657Z,50.89
2022-10-13T08:49:41.769Z,50.87
2022-10-13T08:50:41.802Z,50.87
2022-10-13T08:51:41.879Z,50.83
2022-10-13T08:52:41.977Z,50.83
2022-10-13T08:53:42.058Z,50.80
2022-10-13T08:54:42.121Z,50.79
2022-10-13T08:55:42.217Z,50.78
2022-10-13T08:56:42.298Z,50.78
2022-10-13T08:57:42.347Z,50.76
2022-10-13T08:58:42.553Z,50.74
2022-10-13T08:59:42.509Z,50.73
2022-10-13T09:00:42.585Z,50.71
2022-10-13T09:01:42.708Z,50.69
2022-10-13T09:02:42.764Z,50.69
2022-10-13T09:03:42.871Z,50.68
2022-10-13T09:04:42.905Z,50.68
2022-10-13T09:05:43.026Z,50.66
2022-10-13T09:06:43.111Z,50.64
2022-10-13T09:07:43.235Z,50.63
2022-10-13T09:08:43.217Z,50.64
2022-10-13T09:09:43.292Z,50.64
2022-10-13T09:10:43.377Z,50.64
2022-10-13T09:11:43.471Z,50.63
2022-10-13T09:12:43.514Z,50.62
2022-10-13T09:13:43.608Z,50.59
2022-10-13T09:14:43.681Z,50.59
2022-10-13T09:15:43.753Z,50.58
2022-10-13T09:16:43.828Z,50.58
2022-10-13T09:17:43.931Z,50.61
2022-10-13T09:18:43.981Z,50.67
2022-10-13T09:19:44.078Z,50.66
2022-10-13T09:20:44.128Z,50.66
2022-10-13T09:21:44.222Z,50.66
2022-10-13T09:22:44.310Z,50.66
2022-10-13T09:23:44.409Z,50.64
2022-10-13T09:24:44.508Z,50.66
2022-10-13T09:25:44.570Z,50.64
2022-10-13T09:26:44.654Z,50.64
2022-10-13T09:27:44.740Z,50.65
2022-10-13T09:28:44.845Z,50.65
2022-10-13T09:29:44.871Z,50.64
2022-10-13T09:30:44.935Z,50.63
2022-10-13T09:31:45.013Z,50.64
2022-10-13T09:32:45.093Z,50.62
2022-10-13T09:33:45.399Z,50.63
2022-10-13T09:34:45.252Z,50.65
2022-10-13T09:35:45.339Z,50.64
2022-10-13T09:36:45.395Z,50.62
2022-10-13T09:37:45.502Z,50.62
2022-10-13T09:38:45.553Z,50.61
2022-10-13T09:39:45.638Z,50.60
2022-10-13T09:40:45.795Z,50.59
2022-10-13T09:41:45.795Z,50.57
2022-10-13T09:42:45.881Z,50.57
2022-10-13T09:43:45.986Z,50.58
2022-10-13T09:44:46.039Z,50.57
2022-10-13T09:45:46.121Z,50.57
2022-10-13T09:46:46.215Z,50.55
2022-10-13T09:47:46.266Z,50.56
2022-10-13T09:48:46.351Z,50.55
2022-10-13T09:49:46.398Z,50.55
2022-10-13T09:50:46.480Z,50.53
2022-10-13T09:51:46.557Z,50.54
2022-10-13T09:52:46.660Z,50.53
2022-10-13T09:53:46.729Z,50.53
2022-10-13T09:54:46.816Z,50.52
2022-10-13T09:55:46.865Z,50.53
2022-10-13T09:56:46.943Z,50.52
2022-10-13T09:57:47.041Z,50.50
2022-10-13T09:58:47.120Z,50.51
2022-10-13T09:59:47.193Z,50.50
2022-10-13T10:00:47.264Z,50.50
2022-10-13T10:01:47.332Z,50.48
2022-10-13T10:02:47.459Z,50.47
2022-10-13T10:03:47.596Z,50.47
2022-10-13T10:04:47.590Z,50.46
2022-10-13T10:05:47.656Z,50.45
2022-10-13T10:06:47.750Z,50.43
2022-10-13T10:07:47.877Z,50.44
2022-10-13T10:09:04.555Z,50.43
2022-10-13T10:09:47.987Z,50.46
2022-10-13T10:10:48.069Z,50.44
2022-10-13T10:11:48.142Z,50.43
2022-10-13T10:12:48.218Z,50.42
2022-10-13T10:13:48.297Z,50.41
2022-10-13T10:14:48.364Z,50.42
2022-10-13T10:15:48.455Z,50.41
2022-10-13T10:16:48.559Z,50.40
2022-10-13T10:17:48.630Z,50.42
2022-10-13T10:18:48.722Z,50.41
2022-10-13T10:19:48.806Z,50.41
2022-10-13T10:20:48.869Z,50.39
2022-10-13T10:21:48.962Z,50.38
2022-10-13T10:22:49.029Z,50.39
2022-10-13T10:23:49.111Z,50.38
2022-10-13T10:24:49.182Z,50.37
2022-10-13T10:25:49.254Z,50.36
2022-10-13T10:26:49.369Z,50.36
2022-10-13T10:27:49.390Z,50.36
2022-10-13T10:28:49.519Z,50.32
2022-10-13T10:29:49.555Z,50.33
2022-10-13T10:30:49.635Z,50.35
2022-10-13T10:31:49.718Z,50.34
2022-10-13T10:32:49.842Z,50.34
2022-10-13T10:33:49.864Z,50.33
2022-10-13T10:34:49.943Z,50.32
2022-10-13T10:35:50.013Z,50.33
2022-10-13T10:36:50.098Z,50.32
2022-10-13T10:37:50.148Z,50.33
2022-10-13T10:38:50.236Z,50.33
2022-10-13T10:39:50.292Z,50.31
2022-10-13T10:40:50.379Z,50.32
2022-10-13T10:41:50.449Z,50.33
2022-10-13T10:42:54.028Z,50.30
2022-10-13T10:43:50.601Z,50.33
2022-10-13T10:44:50.737Z,50.31
2022-10-13T10:45:50.759Z,50.31
2022-10-13T10:46:50.848Z,50.29
2022-10-13T10:47:50.899Z,50.30
2022-10-13T10:48:50.971Z,50.31
2022-10-13T10:49:51.035Z,50.29
2022-10-13T10:50:51.128Z,50.28
2022-10-13T10:51:51.184Z,50.27
2022-10-13T10:52:51.278Z,50.28
2022-10-13T10:53:51.388Z,50.28
2022-10-13T10:54:51.416Z,50.28
2022-10-13T10:55:51.500Z,50.29
2022-10-13T10:56:51.580Z,50.29
2022-10-13T10:57:51.658Z,50.30
2022-10-13T10:58:51.705Z,50.31
2022-10-13T10:59:52.627Z,50.31
2022-10-13T11:00:51.867Z,50.35
2022-10-13T11:01:52.014Z,50.37
2022-10-13T11:02:52.034Z,50.36
2022-10-13T11:03:52.087Z,50.36
2022-10-13T11:04:52.167Z,50.35
2022-10-13T11:05:52.242Z,50.34
2022-10-13T11:06:52.318Z,50.35
2022-10-13T11:07:52.404Z,50.34
2022-10-13T11:08:52.505Z,50.33
2022-10-13T11:09:52.573Z,50.33
2022-10-13T11:10:52.655Z,50.33
2022-10-13T11:11:52.731Z,50.33
2022-10-13T11:12:52.948Z,50.31
2022-10-13T11:13:52.880Z,50.32
2022-10-13T11:14:52.959Z,50.31
2022-10-13T11:15:53.052Z,50.31
2022-10-13T11:16:53.119Z,50.32
2022-10-13T11:17:53.241Z,50.39
2022-10-13T11:18:53.308Z,50.40
2022-10-13T11:19:53.345Z,50.42
2022-10-13T11:20:53.450Z,50.43
2022-10-13T11:21:53.510Z,50.42
2022-10-13T11:22:53.587Z,50.40
2022-10-13T11:23:55.542Z,50.38
2022-10-13T11:24:53.775Z,50.39
2022-10-13T11:25:53.851Z,50.39
2022-10-13T11:26:53.931Z,50.41
2022-10-13T11:27:54.003Z,50.40
2022-10-13T11:28:54.154Z,50.39
2022-10-13T11:29:54.158Z,50.40
2022-10-13T11:30:54.234Z,50.40
2022-10-13T11:31:54.299Z,50.39
2022-10-13T11:32:54.382Z,50.40
2022-10-13T11:33:54.460Z,50.42
2022-10-13T11:34:54.579Z,50.36
2022-10-13T11:35:54.653Z,50.37
2022-10-13T11:36:54.711Z,50.42
2022-10-13T11:38:06.344Z,50.45
2022-10-13T11:38:54.876Z,50.49
2022-10-13T11:39:54.934Z,50.52
2022-10-13T11:40:55.021Z,50.54
2022-10-13T11:41:55.111Z,50.55
2022-10-13T11:42:58.334Z,50.57
2022-10-13T11:43:55.234Z,50.59
2022-10-13T11:44:55.346Z,50.61
2022-10-13T11:45:55.416Z,50.59
2022-10-13T11:46:55.501Z,50.59
2022-10-13T11:47:55.669Z,50.59
2022-10-13T11:48:55.675Z,50.60
2022-10-13T11:49:55.853Z,50.57
2022-10-13T11:50:55.866Z,50.56
2022-10-13T11:51:55.916Z,50.55
2022-10-13T11:52:56.010Z,50.54
2022-10-13T11:53:56.054Z,50.52
2022-10-13T11:54:56.147Z,50.51
2022-10-13T11:55:56.228Z,50.47
2022-10-13T11:56:56.308Z,50.45
2022-10-13T11:57:56.375Z,50.42
2022-10-13T11:58:56.471Z,50.38
2022-10-13T11:59:56.601Z,50.40
2022-10-13T12:00:56.650Z,50.38
2022-10-13T12:01:56.758Z,50.35
2022-10-13T12:02:56.831Z,50.35
2022-10-13T12:03:56.879Z,50.37
2022-10-13T12:04:56.981Z,50.37
2022-10-13T12:05:57.023Z,50.35
2022-10-13T12:06:57.132Z,50.36
2022-10-13T12:07:57.185Z,50.35
2022-10-13T12:08:57.271Z,50.34
2022-10-13T12:09:57.368Z,50.34
2022-10-13T12:10:57.451Z,50.34
2022-10-13T12:11:57.532Z,50.31
2022-10-13T12:12:57.605Z,50.30
2022-10-13T12:13:57.677Z,50.32
2022-10-13T12:14:59.917Z,50.31
2022-10-13T12:15:57.840Z,50.33
2022-10-13T12:16:57.932Z,50.32
2022-10-13T12:17:57.995Z,50.29
2022-10-13T12:18:58.082Z,50.27
2022-10-13T12:19:58.152Z,50.30
2022-10-13T12:20:58.226Z,50.28
2022-10-13T12:21:58.305Z,50.26
2022-10-13T12:22:58.397Z,50.27
2022-10-13T12:23:58.464Z,50.26
2022-10-13T12:24:58.565Z,50.28
2022-10-13T12:25:58.634Z,50.25
2022-10-13T12:26:58.778Z,50.25
2022-10-13T12:27:58.790Z,50.25
2022-10-13T12:28:59.029Z,50.22
2022-10-13T12:29:58.983Z,50.25
2022-10-13T12:30:59.069Z,50.25
2022-10-13T12:31:59.154Z,50.25
2022-10-13T12:32:59.233Z,50.27
2022-10-13T12:33:59.317Z,50.23
2022-10-13T12:34:59.402Z,50.24
2022-10-13T12:35:59.476Z,50.25
2022-10-13T12:36:59.554Z,50.24
2022-10-13T12:37:59.631Z,50.23
2022-10-13T12:38:59.702Z,50.22
2022-10-13T12:39:59.790Z,50.22
2022-10-13T12:40:59.881Z,50.18
2022-10-13T12:41:59.926Z,50.17
2022-10-13T12:43:00.008Z,50.21
2022-10-13T12:44:02.533Z,50.21
2022-10-13T12:45:00.181Z,50.22
2022-10-13T12:46:00.253Z,50.20
2022-10-13T12:47:00.336Z,50.19
2022-10-13T12:48:00.427Z,50.20
2022-10-13T12:49:00.488Z,50.19
2022-10-13T12:50:00.574Z,50.18
2022-10-13T12:51:00.663Z,50.17
2022-10-13T12:52:00.748Z,50.18
2022-10-13T12:53:00.821Z,50.20
2022-10-13T12:54:00.902Z,50.19